sensor_id;sensor_type;location;lat;lon;timestamp;P1;durP1;ratioP1;P2;durP2;ratioP2
34914;SDS011;21125;48.630;9.276;2022-08-21T00:01:01;8.65;;;6.05;;
34914;SDS011;21125;48.630;9.276;2022-08-21T00:03:28;8.07;;;5.45;;
34914;SDS011;21125;48.630;9.276;2022-08-21T00:05:54;6.32;;;5.70;;
34914;SDS011;21125;48.630;9.276;2022-08-21T00:08:20;9.02;;;5.55;;
34914;SDS011;21125;48.630;9.276;2022-08-21T00:10:47;7.40;;;6.22;;
34914;SDS011;21125;48.630;9.276;2022-08-21T00:13:14;8.63;;;5.32;;
34914;SDS011;21125;48.630;9.276;2022-08-21T00:15:40;6.95;;;6.32;;
34914;SDS011;21125;48.630;9.276;2022-08-21T00:18:07;7.57;;;5.15;;
34914;SDS011;21125;48.630;9.276;2022-08-21T00:20:34;7.78;;;5.10;;
34914;SDS011;21125;48.630;9.276;2022-08-21T00:23:00;5.15;;;4.43;;
34914;SDS011;21125;48.630;9.276;2022-08-21T00:25:26;5.72;;;4.70;;
34914;SDS011;21125;48.630;9.276;2022-08-21T00:27:53;5.90;;;4.25;;
34914;SDS011;21125;48.630;9.276;2022-08-21T00:30:19;6.10;;;4.85;;
34914;SDS011;21125;48.630;9.276;2022-08-21T00:32:46;5.35;;;4.85;;
34914;SDS011;21125;48.630;9.276;2022-08-21T00:35:13;5.05;;;4.47;;
34914;SDS011;21125;48.630;9.276;2022-08-21T00:37:39;6.13;;;4.78;;
34914;SDS011;21125;48.630;9.276;2022-08-21T00:40:07;7.53;;;4.25;;
34914;SDS011;21125;48.630;9.276;2022-08-21T00:42:33;6.22;;;4.43;;
34914;SDS011;21125;48.630;9.276;2022-08-21T00:44:59;4.78;;;4.20;;
34914;SDS011;21125;48.630;9.276;2022-08-21T00:47:25;5.28;;;4.22;;
34914;SDS011;21125;48.630;9.276;2022-08-21T00:49:51;6.20;;;4.53;;
34914;SDS011;21125;48.630;9.276;2022-08-21T00:52:19;4.70;;;4.30;;
34914;SDS011;21125;48.630;9.276;2022-08-21T00:54:46;6.07;;;4.18;;
34914;SDS011;21125;48.630;9.276;2022-08-21T00:57:16;9.23;;;4.60;;
34914;SDS011;21125;48.630;9.276;2022-08-21T00:59:44;5.18;;;4.43;;
34914;SDS011;21125;48.630;9.276;2022-08-21T01:02:11;4.53;;;3.97;;
34914;SDS011;21125;48.630;9.276;2022-08-21T01:04:37;4.75;;;4.32;;
34914;SDS011;21125;48.630;9.276;2022-08-21T01:07:03;4.38;;;3.92;;
34914;SDS011;21125;48.630;9.276;2022-08-21T01:09:29;6.20;;;3.80;;
34914;SDS011;21125;48.630;9.276;2022-08-21T01:11:55;5.40;;;4.90;;
34914;SDS011;21125;48.630;9.276;2022-08-21T01:14:21;6.70;;;4.63;;
34914;SDS011;21125;48.630;9.276;2022-08-21T01:16:48;6.60;;;4.07;;
34914;SDS011;21125;48.630;9.276;2022-08-21T01:19:15;7.10;;;4.28;;
34914;SDS011;21125;48.630;9.276;2022-08-21T01:21:42;4.82;;;4.28;;
34914;SDS011;21125;48.630;9.276;2022-08-21T01:24:08;4.35;;;3.95;;
34914;SDS011;21125;48.630;9.276;2022-08-21T01:26:35;7.25;;;4.50;;
34914;SDS011;21125;48.630;9.276;2022-08-21T01:29:49;4.82;;;4.28;;
34914;SDS011;21125;48.630;9.276;2022-08-21T01:31:47;4.72;;;4.05;;
34914;SDS011;21125;48.630;9.276;2022-08-21T01:34:14;5.03;;;4.47;;
34914;SDS011;21125;48.630;9.276;2022-08-21T01:36:40;4.82;;;4.30;;
34914;SDS011;21125;48.630;9.276;2022-08-21T01:39:06;6.20;;;4.53;;
34914;SDS011;21125;48.630;9.276;2022-08-21T01:41:32;7.20;;;4.10;;
34914;SDS011;21125;48.630;9.276;2022-08-21T01:43:58;5.82;;;4.30;;
34914;SDS011;21125;48.630;9.276;2022-08-21T01:46:24;4.47;;;3.78;;
34914;SDS011;21125;48.630;9.276;2022-08-21T01:48:50;6.47;;;4.78;;
34914;SDS011;21125;48.630;9.276;2022-08-21T01:51:16;5.80;;;4.18;;
34914;SDS011;21125;48.630;9.276;2022-08-21T01:53:42;6.00;;;5.30;;
34914;SDS011;21125;48.630;9.276;2022-08-21T01:56:09;5.80;;;4.15;;
34914;SDS011;21125;48.630;9.276;2022-08-21T01:58:36;6.55;;;4.18;;
34914;SDS011;21125;48.630;9.276;2022-08-21T02:01:02;5.00;;;4.43;;
34914;SDS011;21125;48.630;9.276;2022-08-21T02:03:28;7.00;;;4.60;;
34914;SDS011;21125;48.630;9.276;2022-08-21T02:05:55;6.15;;;4.10;;
34914;SDS011;21125;48.630;9.276;2022-08-21T02:08:21;5.65;;;4.50;;
34914;SDS011;21125;48.630;9.276;2022-08-21T02:10:48;4.90;;;4.47;;
34914;SDS011;21125;48.630;9.276;2022-08-21T02:13:14;4.97;;;4.47;;
34914;SDS011;21125;48.630;9.276;2022-08-21T02:15:41;5.78;;;4.65;;
34914;SDS011;21125;48.630;9.276;2022-08-21T02:18:07;6.03;;;4.57;;
34914;SDS011;21125;48.630;9.276;2022-08-21T02:20:36;5.28;;;4.78;;
34914;SDS011;21125;48.630;9.276;2022-08-21T02:23:02;5.82;;;5.28;;
34914;SDS011;21125;48.630;9.276;2022-08-21T02:25:29;5.68;;;5.18;;
34914;SDS011;21125;48.630;9.276;2022-08-21T02:27:56;5.18;;;4.60;;
34914;SDS011;21125;48.630;9.276;2022-08-21T02:30:24;5.25;;;4.85;;
34914;SDS011;21125;48.630;9.276;2022-08-21T02:32:50;6.47;;;5.30;;
34914;SDS011;21125;48.630;9.276;2022-08-21T02:35:16;6.68;;;5.60;;
34914;SDS011;21125;48.630;9.276;2022-08-21T02:37:48;5.55;;;5.05;;
34914;SDS011;21125;48.630;9.276;2022-08-21T02:40:14;6.63;;;5.03;;
34914;SDS011;21125;48.630;9.276;2022-08-21T02:42:40;5.65;;;5.15;;
34914;SDS011;21125;48.630;9.276;2022-08-21T02:45:07;5.70;;;5.20;;
34914;SDS011;21125;48.630;9.276;2022-08-21T02:47:33;5.43;;;4.63;;
34914;SDS011;21125;48.630;9.276;2022-08-21T02:49:59;4.95;;;4.55;;
34914;SDS011;21125;48.630;9.276;2022-08-21T02:52:25;6.38;;;5.45;;
34914;SDS011;21125;48.630;9.276;2022-08-21T02:54:51;6.88;;;5.35;;
34914;SDS011;21125;48.630;9.276;2022-08-21T02:57:16;8.27;;;4.97;;
34914;SDS011;21125;48.630;9.276;2022-08-21T02:59:42;7.60;;;5.18;;
34914;SDS011;21125;48.630;9.276;2022-08-21T03:02:08;6.13;;;4.88;;
34914;SDS011;21125;48.630;9.276;2022-08-21T03:04:36;6.53;;;5.18;;
34914;SDS011;21125;48.630;9.276;2022-08-21T03:07:02;9.15;;;6.80;;
34914;SDS011;21125;48.630;9.276;2022-08-21T03:09:28;6.03;;;4.75;;
34914;SDS011;21125;48.630;9.276;2022-08-21T03:11:54;5.88;;;4.93;;
34914;SDS011;21125;48.630;9.276;2022-08-21T03:14:20;4.93;;;4.50;;
34914;SDS011;21125;48.630;9.276;2022-08-21T03:16:46;5.90;;;4.80;;
34914;SDS011;21125;48.630;9.276;2022-08-21T03:19:12;5.30;;;4.57;;
34914;SDS011;21125;48.630;9.276;2022-08-21T03:21:38;7.65;;;5.35;;
34914;SDS011;21125;48.630;9.276;2022-08-21T03:24:04;5.25;;;4.75;;
34914;SDS011;21125;48.630;9.276;2022-08-21T03:26:31;5.10;;;4.60;;
34914;SDS011;21125;48.630;9.276;2022-08-21T03:28:57;5.35;;;4.68;;
34914;SDS011;21125;48.630;9.276;2022-08-21T03:31:23;6.45;;;5.22;;
34914;SDS011;21125;48.630;9.276;2022-08-21T03:33:53;4.93;;;4.43;;
34914;SDS011;21125;48.630;9.276;2022-08-21T03:36:20;5.90;;;5.38;;
34914;SDS011;21125;48.630;9.276;2022-08-21T03:38:46;8.65;;;4.80;;
34914;SDS011;21125;48.630;9.276;2022-08-21T03:41:12;8.55;;;5.30;;
34914;SDS011;21125;48.630;9.276;2022-08-21T03:43:38;7.60;;;4.88;;
34914;SDS011;21125;48.630;9.276;2022-08-21T03:46:04;5.28;;;4.70;;
34914;SDS011;21125;48.630;9.276;2022-08-21T03:48:31;5.78;;;4.35;;
34914;SDS011;21125;48.630;9.276;2022-08-21T03:50:57;5.95;;;4.78;;
34914;SDS011;21125;48.630;9.276;2022-08-21T03:53:23;6.22;;;4.40;;
34914;SDS011;21125;48.630;9.276;2022-08-21T03:55:50;4.93;;;4.43;;
34914;SDS011;21125;48.630;9.276;2022-08-21T03:58:18;4.28;;;3.65;;
34914;SDS011;21125;48.630;9.276;2022-08-21T04:00:45;4.35;;;3.97;;
34914;SDS011;21125;48.630;9.276;2022-08-21T04:03:12;5.40;;;4.90;;
34914;SDS011;21125;48.630;9.276;2022-08-21T04:05:38;6.72;;;5.93;;
34914;SDS011;21125;48.630;9.276;2022-08-21T04:08:05;7.35;;;4.97;;
34914;SDS011;21125;48.630;9.276;2022-08-21T04:10:32;5.53;;;4.68;;
34914;SDS011;21125;48.630;9.276;2022-08-21T04:12:59;4.97;;;4.57;;
34914;SDS011;21125;48.630;9.276;2022-08-21T04:15:25;5.68;;;4.45;;
34914;SDS011;21125;48.630;9.276;2022-08-21T04:17:52;5.65;;;5.15;;
34914;SDS011;21125;48.630;9.276;2022-08-21T04:20:18;10.25;;;4.95;;
34914;SDS011;21125;48.630;9.276;2022-08-21T04:22:45;5.15;;;4.15;;
34914;SDS011;21125;48.630;9.276;2022-08-21T04:25:12;5.57;;;5.05;;
34914;SDS011;21125;48.630;9.276;2022-08-21T04:27:38;7.25;;;4.78;;
34914;SDS011;21125;48.630;9.276;2022-08-21T04:30:05;6.55;;;5.18;;
34914;SDS011;21125;48.630;9.276;2022-08-21T04:32:31;4.75;;;4.30;;
34914;SDS011;21125;48.630;9.276;2022-08-21T04:35:01;5.45;;;4.95;;
34914;SDS011;21125;48.630;9.276;2022-08-21T04:37:29;6.15;;;4.57;;
34914;SDS011;21125;48.630;9.276;2022-08-21T04:39:55;5.47;;;4.97;;
34914;SDS011;21125;48.630;9.276;2022-08-21T04:42:25;4.95;;;4.38;;
34914;SDS011;21125;48.630;9.276;2022-08-21T04:44:51;5.75;;;4.63;;
34914;SDS011;21125;48.630;9.276;2022-08-21T04:47:17;5.38;;;4.90;;
34914;SDS011;21125;48.630;9.276;2022-08-21T04:49:43;4.85;;;4.45;;
34914;SDS011;21125;48.630;9.276;2022-08-21T04:52:10;5.13;;;4.63;;
34914;SDS011;21125;48.630;9.276;2022-08-21T04:54:36;10.00;;;4.93;;
34914;SDS011;21125;48.630;9.276;2022-08-21T04:57:04;5.13;;;4.63;;
34914;SDS011;21125;48.630;9.276;2022-08-21T04:59:33;7.43;;;4.43;;
34914;SDS011;21125;48.630;9.276;2022-08-21T05:02:01;4.72;;;4.32;;
34914;SDS011;21125;48.630;9.276;2022-08-21T05:04:28;4.40;;;4.00;;
34914;SDS011;21125;48.630;9.276;2022-08-21T05:06:56;6.82;;;3.55;;
34914;SDS011;21125;48.630;9.276;2022-08-21T05:09:23;3.17;;;2.90;;
34914;SDS011;21125;48.630;9.276;2022-08-21T05:11:49;4.85;;;3.10;;
34914;SDS011;21125;48.630;9.276;2022-08-21T05:14:16;3.95;;;2.78;;
34914;SDS011;21125;48.630;9.276;2022-08-21T05:16:42;4.75;;;2.10;;
34914;SDS011;21125;48.630;9.276;2022-08-21T05:19:09;2.90;;;2.67;;
34914;SDS011;21125;48.630;9.276;2022-08-21T05:21:35;3.00;;;2.40;;
34914;SDS011;21125;48.630;9.276;2022-08-21T05:24:01;2.33;;;2.03;;
34914;SDS011;21125;48.630;9.276;2022-08-21T05:26:27;2.00;;;1.88;;
34914;SDS011;21125;48.630;9.276;2022-08-21T05:28:54;3.40;;;1.80;;
34914;SDS011;21125;48.630;9.276;2022-08-21T05:31:20;3.20;;;1.80;;
34914;SDS011;21125;48.630;9.276;2022-08-21T05:33:47;2.00;;;1.60;;
34914;SDS011;21125;48.630;9.276;2022-08-21T05:36:13;3.38;;;1.48;;
34914;SDS011;21125;48.630;9.276;2022-08-21T05:38:39;2.17;;;1.60;;
34914;SDS011;21125;48.630;9.276;2022-08-21T05:41:05;1.42;;;1.20;;
34914;SDS011;21125;48.630;9.276;2022-08-21T05:43:32;1.58;;;1.42;;
34914;SDS011;21125;48.630;9.276;2022-08-21T05:46:01;1.25;;;1.15;;
34914;SDS011;21125;48.630;9.276;2022-08-21T05:48:27;3.38;;;1.40;;
34914;SDS011;21125;48.630;9.276;2022-08-21T05:50:52;2.47;;;1.70;;
34914;SDS011;21125;48.630;9.276;2022-08-21T05:53:19;1.55;;;1.30;;
34914;SDS011;21125;48.630;9.276;2022-08-21T05:55:46;1.40;;;1.30;;
34914;SDS011;21125;48.630;9.276;2022-08-21T05:58:16;2.38;;;1.85;;
34914;SDS011;21125;48.630;9.276;2022-08-21T06:00:42;2.17;;;1.48;;
34914;SDS011;21125;48.630;9.276;2022-08-21T06:03:22;2.10;;;1.77;;
34914;SDS011;21125;48.630;9.276;2022-08-21T06:05:48;2.40;;;1.48;;
34914;SDS011;21125;48.630;9.276;2022-08-21T06:08:15;1.73;;;1.63;;
34914;SDS011;21125;48.630;9.276;2022-08-21T06:10:41;1.45;;;1.35;;
34914;SDS011;21125;48.630;9.276;2022-08-21T06:13:07;1.88;;;1.33;;
34914;SDS011;21125;48.630;9.276;2022-08-21T06:15:34;1.85;;;1.50;;
34914;SDS011;21125;48.630;9.276;2022-08-21T06:18:00;1.40;;;1.30;;
34914;SDS011;21125;48.630;9.276;2022-08-21T06:20:26;1.83;;;1.30;;
34914;SDS011;21125;48.630;9.276;2022-08-21T06:22:52;1.90;;;1.70;;
34914;SDS011;21125;48.630;9.276;2022-08-21T06:25:18;1.88;;;1.40;;
34914;SDS011;21125;48.630;9.276;2022-08-21T06:27:44;6.35;;;1.52;;
34914;SDS011;21125;48.630;9.276;2022-08-21T06:30:10;3.65;;;1.63;;
34914;SDS011;21125;48.630;9.276;2022-08-21T06:32:36;1.90;;;1.20;;
34914;SDS011;21125;48.630;9.276;2022-08-21T06:35:03;2.17;;;1.73;;
34914;SDS011;21125;48.630;9.276;2022-08-21T06:37:29;1.67;;;1.42;;
34914;SDS011;21125;48.630;9.276;2022-08-21T06:39:55;4.45;;;1.50;;
34914;SDS011;21125;48.630;9.276;2022-08-21T06:42:21;2.60;;;1.63;;
34914;SDS011;21125;48.630;9.276;2022-08-21T06:44:47;3.55;;;1.58;;
34914;SDS011;21125;48.630;9.276;2022-08-21T06:47:13;1.60;;;1.50;;
34914;SDS011;21125;48.630;9.276;2022-08-21T06:49:39;2.05;;;1.30;;
34914;SDS011;21125;48.630;9.276;2022-08-21T06:52:09;2.17;;;1.40;;
34914;SDS011;21125;48.630;9.276;2022-08-21T06:54:36;1.75;;;1.45;;
34914;SDS011;21125;48.630;9.276;2022-08-21T06:57:02;2.60;;;1.58;;
34914;SDS011;21125;48.630;9.276;2022-08-21T06:59:28;2.90;;;1.40;;
34914;SDS011;21125;48.630;9.276;2022-08-21T07:01:54;1.70;;;1.60;;
34914;SDS011;21125;48.630;9.276;2022-08-21T07:04:20;1.92;;;1.50;;
34914;SDS011;21125;48.630;9.276;2022-08-21T07:06:46;1.98;;;1.52;;
34914;SDS011;21125;48.630;9.276;2022-08-21T07:09:12;1.58;;;1.48;;
34914;SDS011;21125;48.630;9.276;2022-08-21T07:11:38;1.67;;;1.23;;
34914;SDS011;21125;48.630;9.276;2022-08-21T07:14:04;1.95;;;1.50;;
34914;SDS011;21125;48.630;9.276;2022-08-21T07:16:30;1.92;;;1.70;;
34914;SDS011;21125;48.630;9.276;2022-08-21T07:18:56;1.85;;;1.75;;
34914;SDS011;21125;48.630;9.276;2022-08-21T07:21:22;2.22;;;1.33;;
34914;SDS011;21125;48.630;9.276;2022-08-21T07:23:49;3.38;;;1.63;;
34914;SDS011;21125;48.630;9.276;2022-08-21T07:26:16;3.22;;;1.80;;
34914;SDS011;21125;48.630;9.276;2022-08-21T07:28:42;2.10;;;1.48;;
34914;SDS011;21125;48.630;9.276;2022-08-21T07:31:08;2.88;;;1.33;;
34914;SDS011;21125;48.630;9.276;2022-08-21T07:33:35;2.08;;;1.73;;
34914;SDS011;21125;48.630;9.276;2022-08-21T07:36:01;1.10;;;1.00;;
34914;SDS011;21125;48.630;9.276;2022-08-21T07:38:27;1.30;;;1.20;;
34914;SDS011;21125;48.630;9.276;2022-08-21T07:40:54;1.88;;;1.30;;
34914;SDS011;21125;48.630;9.276;2022-08-21T07:43:20;2.10;;;1.27;;
34914;SDS011;21125;48.630;9.276;2022-08-21T07:45:46;2.65;;;1.60;;
34914;SDS011;21125;48.630;9.276;2022-08-21T07:48:14;1.40;;;1.30;;
34914;SDS011;21125;48.630;9.276;2022-08-21T07:50:40;2.15;;;1.35;;
34914;SDS011;21125;48.630;9.276;2022-08-21T07:53:06;1.90;;;1.58;;
34914;SDS011;21125;48.630;9.276;2022-08-21T07:55:32;1.83;;;1.50;;
34914;SDS011;21125;48.630;9.276;2022-08-21T07:57:58;1.88;;;1.65;;
34914;SDS011;21125;48.630;9.276;2022-08-21T08:00:25;2.00;;;1.77;;
34914;SDS011;21125;48.630;9.276;2022-08-21T08:02:52;2.67;;;1.88;;
34914;SDS011;21125;48.630;9.276;2022-08-21T08:05:20;3.90;;;1.75;;
34914;SDS011;21125;48.630;9.276;2022-08-21T08:07:46;3.55;;;2.13;;
34914;SDS011;21125;48.630;9.276;2022-08-21T08:10:13;2.40;;;1.65;;
34914;SDS011;21125;48.630;9.276;2022-08-21T08:12:39;4.95;;;1.80;;
34914;SDS011;21125;48.630;9.276;2022-08-21T08:15:07;3.63;;;1.98;;
34914;SDS011;21125;48.630;9.276;2022-08-21T08:17:34;5.28;;;2.20;;
34914;SDS011;21125;48.630;9.276;2022-08-21T08:19:59;3.85;;;2.70;;
34914;SDS011;21125;48.630;9.276;2022-08-21T08:22:26;5.60;;;2.45;;
34914;SDS011;21125;48.630;9.276;2022-08-21T08:24:52;3.67;;;2.40;;
34914;SDS011;21125;48.630;9.276;2022-08-21T08:27:18;3.40;;;2.30;;
34914;SDS011;21125;48.630;9.276;2022-08-21T08:29:44;5.57;;;2.83;;
34914;SDS011;21125;48.630;9.276;2022-08-21T08:32:10;3.95;;;2.45;;
34914;SDS011;21125;48.630;9.276;2022-08-21T08:34:37;3.28;;;2.55;;
34914;SDS011;21125;48.630;9.276;2022-08-21T08:37:03;5.85;;;2.78;;
34914;SDS011;21125;48.630;9.276;2022-08-21T08:39:30;3.17;;;2.53;;
34914;SDS011;21125;48.630;9.276;2022-08-21T08:42:03;3.13;;;2.47;;
34914;SDS011;21125;48.630;9.276;2022-08-21T08:44:30;4.05;;;2.42;;
34914;SDS011;21125;48.630;9.276;2022-08-21T08:46:56;3.90;;;2.53;;
34914;SDS011;21125;48.630;9.276;2022-08-21T08:49:24;4.60;;;3.05;;
34914;SDS011;21125;48.630;9.276;2022-08-21T08:51:57;8.10;;;2.95;;
34914;SDS011;21125;48.630;9.276;2022-08-21T08:54:35;7.75;;;3.45;;
34914;SDS011;21125;48.630;9.276;2022-08-21T08:57:03;3.38;;;2.50;;
34914;SDS011;21125;48.630;9.276;2022-08-21T08:59:36;4.68;;;2.22;;
34914;SDS011;21125;48.630;9.276;2022-08-21T09:02:04;3.65;;;2.55;;
34914;SDS011;21125;48.630;9.276;2022-08-21T09:04:30;3.25;;;2.55;;
34914;SDS011;21125;48.630;9.276;2022-08-21T09:07:31;3.00;;;2.10;;
34914;SDS011;21125;48.630;9.276;2022-08-21T09:12:28;4.43;;;2.63;;
34914;SDS011;21125;48.630;9.276;2022-08-21T09:15:01;6.40;;;2.95;;
34914;SDS011;21125;48.630;9.276;2022-08-21T09:22:56;3.72;;;2.38;;
34914;SDS011;21125;48.630;9.276;2022-08-21T09:25:25;4.20;;;2.00;;
34914;SDS011;21125;48.630;9.276;2022-08-21T09:27:52;3.85;;;2.22;;
34914;SDS011;21125;48.630;9.276;2022-08-21T09:30:18;4.72;;;2.85;;
34914;SDS011;21125;48.630;9.276;2022-08-21T09:32:45;3.33;;;1.98;;
34914;SDS011;21125;48.630;9.276;2022-08-21T09:35:15;4.30;;;2.58;;
34914;SDS011;21125;48.630;9.276;2022-08-21T09:37:55;5.30;;;2.60;;
34914;SDS011;21125;48.630;9.276;2022-08-21T09:42:56;2.40;;;2.17;;
34914;SDS011;21125;48.630;9.276;2022-08-21T09:45:22;5.93;;;2.67;;
34914;SDS011;21125;48.630;9.276;2022-08-21T09:47:48;3.88;;;2.10;;
34914;SDS011;21125;48.630;9.276;2022-08-21T09:50:15;4.43;;;2.50;;
34914;SDS011;21125;48.630;9.276;2022-08-21T09:52:42;3.45;;;2.65;;
34914;SDS011;21125;48.630;9.276;2022-08-21T09:55:13;5.72;;;2.53;;
34914;SDS011;21125;48.630;9.276;2022-08-21T09:58:00;3.60;;;2.40;;
34914;SDS011;21125;48.630;9.276;2022-08-21T10:00:28;3.30;;;2.30;;
34914;SDS011;21125;48.630;9.276;2022-08-21T10:03:07;6.82;;;2.90;;
34914;SDS011;21125;48.630;9.276;2022-08-21T10:05:33;4.05;;;2.53;;
34914;SDS011;21125;48.630;9.276;2022-08-21T10:08:00;6.20;;;2.80;;
34914;SDS011;21125;48.630;9.276;2022-08-21T10:10:28;7.25;;;2.70;;
34914;SDS011;21125;48.630;9.276;2022-08-21T10:21:02;4.45;;;2.45;;
34914;SDS011;21125;48.630;9.276;2022-08-21T10:31:10;4.35;;;2.45;;
34914;SDS011;21125;48.630;9.276;2022-08-21T10:36:23;4.53;;;2.78;;
34914;SDS011;21125;48.630;9.276;2022-08-21T10:41:35;4.07;;;2.45;;
34914;SDS011;21125;48.630;9.276;2022-08-21T10:51:51;4.82;;;2.42;;
34914;SDS011;21125;48.630;9.276;2022-08-21T10:54:29;3.80;;;2.47;;
34914;SDS011;21125;48.630;9.276;2022-08-21T10:57:02;3.25;;;2.65;;
34914;SDS011;21125;48.630;9.276;2022-08-21T10:59:31;5.65;;;2.20;;
34914;SDS011;21125;48.630;9.276;2022-08-21T11:04:40;2.92;;;2.45;;
34914;SDS011;21125;48.630;9.276;2022-08-21T11:07:21;3.47;;;2.00;;
34914;SDS011;21125;48.630;9.276;2022-08-21T11:09:48;3.75;;;2.17;;
34914;SDS011;21125;48.630;9.276;2022-08-21T11:15:05;2.65;;;1.85;;
34914;SDS011;21125;48.630;9.276;2022-08-21T11:17:34;4.50;;;2.22;;
34914;SDS011;21125;48.630;9.276;2022-08-21T11:20:05;4.22;;;2.20;;
34914;SDS011;21125;48.630;9.276;2022-08-21T11:22:35;4.55;;;2.78;;
34914;SDS011;21125;48.630;9.276;2022-08-21T11:25:06;4.57;;;2.10;;
34914;SDS011;21125;48.630;9.276;2022-08-21T11:27:45;3.60;;;2.50;;
34914;SDS011;21125;48.630;9.276;2022-08-21T11:30:12;2.42;;;1.90;;
34914;SDS011;21125;48.630;9.276;2022-08-21T11:35:13;3.20;;;2.15;;
34914;SDS011;21125;48.630;9.276;2022-08-21T11:37:48;2.78;;;1.98;;
34914;SDS011;21125;48.630;9.276;2022-08-21T11:43:07;2.10;;;1.90;;
34914;SDS011;21125;48.630;9.276;2022-08-21T11:45:40;4.63;;;1.88;;
34914;SDS011;21125;48.630;9.276;2022-08-21T11:48:16;2.47;;;1.85;;
34914;SDS011;21125;48.630;9.276;2022-08-21T11:50:49;3.22;;;2.42;;
34914;SDS011;21125;48.630;9.276;2022-08-21T11:53:24;2.88;;;2.00;;
34914;SDS011;21125;48.630;9.276;2022-08-21T11:55:55;3.67;;;2.55;;
34914;SDS011;21125;48.630;9.276;2022-08-21T12:01:06;3.53;;;2.47;;
34914;SDS011;21125;48.630;9.276;2022-08-21T12:03:36;4.00;;;2.40;;
34914;SDS011;21125;48.630;9.276;2022-08-21T12:06:08;2.10;;;1.65;;
34914;SDS011;21125;48.630;9.276;2022-08-21T12:08:36;4.40;;;2.28;;
34914;SDS011;21125;48.630;9.276;2022-08-21T12:11:09;3.90;;;2.53;;
34914;SDS011;21125;48.630;9.276;2022-08-21T12:13:40;3.22;;;2.35;;
34914;SDS011;21125;48.630;9.276;2022-08-21T12:16:16;2.65;;;2.03;;
34914;SDS011;21125;48.630;9.276;2022-08-21T12:19:02;5.47;;;2.08;;
34914;SDS011;21125;48.630;9.276;2022-08-21T12:21:29;4.55;;;2.50;;
34914;SDS011;21125;48.630;9.276;2022-08-21T12:24:03;3.33;;;2.20;;
34914;SDS011;21125;48.630;9.276;2022-08-21T12:32:02;4.05;;;2.40;;
34914;SDS011;21125;48.630;9.276;2022-08-21T12:34:31;4.15;;;2.20;;
34914;SDS011;21125;48.630;9.276;2022-08-21T12:37:00;4.05;;;2.20;;
34914;SDS011;21125;48.630;9.276;2022-08-21T12:39:27;4.50;;;2.05;;
34914;SDS011;21125;48.630;9.276;2022-08-21T12:42:06;2.58;;;1.90;;
34914;SDS011;21125;48.630;9.276;2022-08-21T12:46:59;4.30;;;2.17;;
34914;SDS011;21125;48.630;9.276;2022-08-21T12:49:37;2.53;;;1.55;;
34914;SDS011;21125;48.630;9.276;2022-08-21T12:52:14;2.17;;;1.70;;
34914;SDS011;21125;48.630;9.276;2022-08-21T12:57:08;2.38;;;1.83;;
34914;SDS011;21125;48.630;9.276;2022-08-21T12:59:39;4.80;;;2.22;;
34914;SDS011;21125;48.630;9.276;2022-08-21T13:02:10;1.90;;;1.60;;
34914;SDS011;21125;48.630;9.276;2022-08-21T13:04:39;3.92;;;1.77;;
34914;SDS011;21125;48.630;9.276;2022-08-21T13:07:07;2.67;;;1.33;;
34914;SDS011;21125;48.630;9.276;2022-08-21T13:09:36;2.65;;;2.20;;
34914;SDS011;21125;48.630;9.276;2022-08-21T13:12:06;1.67;;;1.38;;
34914;SDS011;21125;48.630;9.276;2022-08-21T13:14:35;2.05;;;1.83;;
34914;SDS011;21125;48.630;9.276;2022-08-21T13:17:03;3.00;;;1.83;;
34914;SDS011;21125;48.630;9.276;2022-08-21T13:19:31;3.08;;;2.10;;
34914;SDS011;21125;48.630;9.276;2022-08-21T13:21:58;2.60;;;1.70;;
34914;SDS011;21125;48.630;9.276;2022-08-21T13:24:28;4.60;;;2.20;;
34914;SDS011;21125;48.630;9.276;2022-08-21T13:26:54;1.88;;;1.60;;
34914;SDS011;21125;48.630;9.276;2022-08-21T13:29:22;1.85;;;1.70;;
34914;SDS011;21125;48.630;9.276;2022-08-21T13:31:49;5.95;;;1.90;;
34914;SDS011;21125;48.630;9.276;2022-08-21T13:34:17;3.35;;;2.80;;
34914;SDS011;21125;48.630;9.276;2022-08-21T13:36:43;1.58;;;1.48;;
34914;SDS011;21125;48.630;9.276;2022-08-21T13:39:11;3.17;;;1.73;;
34914;SDS011;21125;48.630;9.276;2022-08-21T13:41:38;3.10;;;1.80;;
34914;SDS011;21125;48.630;9.276;2022-08-21T13:44:19;1.90;;;1.80;;
34914;SDS011;21125;48.630;9.276;2022-08-21T13:46:46;3.30;;;2.03;;
34914;SDS011;21125;48.630;9.276;2022-08-21T13:49:15;3.42;;;1.90;;
34914;SDS011;21125;48.630;9.276;2022-08-21T13:51:41;4.75;;;2.17;;
34914;SDS011;21125;48.630;9.276;2022-08-21T13:54:15;1.75;;;1.65;;
34914;SDS011;21125;48.630;9.276;2022-08-21T13:56:42;2.15;;;1.80;;
34914;SDS011;21125;48.630;9.276;2022-08-21T13:59:09;8.63;;;1.90;;
34914;SDS011;21125;48.630;9.276;2022-08-21T14:01:51;1.98;;;1.80;;
34914;SDS011;21125;48.630;9.276;2022-08-21T14:04:23;2.38;;;1.65;;
34914;SDS011;21125;48.630;9.276;2022-08-21T14:06:50;2.45;;;1.65;;
34914;SDS011;21125;48.630;9.276;2022-08-21T14:11:48;3.33;;;2.45;;
34914;SDS011;21125;48.630;9.276;2022-08-21T14:14:22;4.10;;;2.25;;
34914;SDS011;21125;48.630;9.276;2022-08-21T14:16:54;3.13;;;2.45;;
34914;SDS011;21125;48.630;9.276;2022-08-21T14:19:21;2.97;;;1.88;;
34914;SDS011;21125;48.630;9.276;2022-08-21T14:21:48;3.05;;;2.30;;
34914;SDS011;21125;48.630;9.276;2022-08-21T14:26:53;3.35;;;2.30;;
34914;SDS011;21125;48.630;9.276;2022-08-21T14:29:20;4.32;;;2.10;;
34914;SDS011;21125;48.630;9.276;2022-08-21T14:31:51;4.75;;;2.03;;
34914;SDS011;21125;48.630;9.276;2022-08-21T14:34:17;2.47;;;2.25;;
34914;SDS011;21125;48.630;9.276;2022-08-21T14:36:43;3.60;;;2.42;;
34914;SDS011;21125;48.630;9.276;2022-08-21T14:39:09;4.40;;;2.00;;
34914;SDS011;21125;48.630;9.276;2022-08-21T14:41:36;5.95;;;2.13;;
34914;SDS011;21125;48.630;9.276;2022-08-21T14:44:02;4.40;;;2.65;;
34914;SDS011;21125;48.630;9.276;2022-08-21T14:46:28;2.75;;;2.35;;
34914;SDS011;21125;48.630;9.276;2022-08-21T14:48:56;5.25;;;2.20;;
34914;SDS011;21125;48.630;9.276;2022-08-21T14:51:22;3.85;;;2.40;;
34914;SDS011;21125;48.630;9.276;2022-08-21T14:53:48;4.63;;;2.30;;
34914;SDS011;21125;48.630;9.276;2022-08-21T14:56:15;4.70;;;2.25;;
34914;SDS011;21125;48.630;9.276;2022-08-21T14:58:42;5.00;;;2.25;;
34914;SDS011;21125;48.630;9.276;2022-08-21T15:01:09;4.43;;;2.67;;
34914;SDS011;21125;48.630;9.276;2022-08-21T15:03:36;2.53;;;1.88;;
34914;SDS011;21125;48.630;9.276;2022-08-21T15:06:03;2.92;;;2.13;;
34914;SDS011;21125;48.630;9.276;2022-08-21T15:08:29;5.35;;;2.60;;
34914;SDS011;21125;48.630;9.276;2022-08-21T15:10:55;3.25;;;2.17;;
34914;SDS011;21125;48.630;9.276;2022-08-21T15:13:21;4.72;;;2.28;;
34914;SDS011;21125;48.630;9.276;2022-08-21T15:15:49;2.35;;;2.15;;
34914;SDS011;21125;48.630;9.276;2022-08-21T15:18:17;7.50;;;2.60;;
34914;SDS011;21125;48.630;9.276;2022-08-21T15:20:43;3.25;;;2.35;;
34914;SDS011;21125;48.630;9.276;2022-08-21T15:23:09;3.17;;;2.40;;
34914;SDS011;21125;48.630;9.276;2022-08-21T15:25:35;5.25;;;2.75;;
34914;SDS011;21125;48.630;9.276;2022-08-21T15:28:02;3.55;;;2.22;;
34914;SDS011;21125;48.630;9.276;2022-08-21T15:30:29;4.57;;;2.72;;
34914;SDS011;21125;48.630;9.276;2022-08-21T15:32:55;5.88;;;2.70;;
34914;SDS011;21125;48.630;9.276;2022-08-21T15:35:21;2.45;;;2.25;;
34914;SDS011;21125;48.630;9.276;2022-08-21T15:37:47;2.35;;;2.13;;
34914;SDS011;21125;48.630;9.276;2022-08-21T15:40:15;2.63;;;2.30;;
34914;SDS011;21125;48.630;9.276;2022-08-21T15:42:42;2.17;;;1.95;;
34914;SDS011;21125;48.630;9.276;2022-08-21T15:45:09;3.30;;;2.25;;
34914;SDS011;21125;48.630;9.276;2022-08-21T15:47:36;2.80;;;2.17;;
34914;SDS011;21125;48.630;9.276;2022-08-21T15:50:03;2.80;;;2.10;;
34914;SDS011;21125;48.630;9.276;2022-08-21T15:52:29;5.13;;;2.50;;
34914;SDS011;21125;48.630;9.276;2022-08-21T15:54:55;4.15;;;1.75;;
34914;SDS011;21125;48.630;9.276;2022-08-21T15:57:22;4.20;;;2.53;;
34914;SDS011;21125;48.630;9.276;2022-08-21T15:59:52;2.92;;;2.13;;